Time;durP1;ratioP1;P1;durP2;ratioP2;P2;SDS_P1;SDS_P2;PMS_P1;PMS_P2;Temp;Humidity;BMP_temperature;BMP_pressure;BME280_temperature;BME280_humidity;BME280_pressure;Samples;Min_cycle;Max_cycle;Signal;HPM_P1;HPM_P2
2021/05/07 00:01:47;;;;;;;0.70;0.70;;;9.60;99.90;;;;;;5111111;28;20967;-68
2021/05/07 00:04:17;;;;;;;0.70;0.70;;;9.60;99.90;;;;;;5110288;28;20448;-68
2021/05/07 00:06:44;;;;;;;0.70;0.60;;;9.60;99.90;;;;;;5110965;28;20481;-68
2021/05/07 00:09:10;;;;;;;1.00;0.80;;;9.50;99.90;;;;;;5110656;28;20579;-68
2021/05/07 00:11:37;;;;;;;2.93;0.90;;;9.60;99.90;;;;;;5110908;28;20977;-68
2021/05/07 00:14:04;;;;;;;1.47;0.90;;;9.50;99.90;;;;;;5111238;28;20436;-68
2021/05/07 00:16:32;;;;;;;1.10;0.80;;;9.50;99.90;;;;;;5111024;28;20476;-67
2021/05/07 00:18:58;;;;;;;0.80;0.60;;;9.50;99.90;;;;;;5112006;28;20828;-67
2021/05/07 00:21:25;;;;;;;1.00;0.80;;;9.50;99.90;;;;;;5114418;28;20531;-67
2021/05/07 00:23:52;;;;;;;0.90;0.80;;;9.40;99.90;;;;;;5115044;28;20542;-68
2021/05/07 00:26:18;;;;;;;1.47;0.90;;;9.40;99.90;;;;;;5114810;28;20447;-68
2021/05/07 00:28:45;;;;;;;2.07;1.00;;;9.50;99.90;;;;;;5115497;28;20842;-68
2021/05/07 00:31:11;;;;;;;0.70;0.63;;;9.50;99.90;;;;;;5114694;28;21179;-68
2021/05/07 00:33:38;;;;;;;1.17;0.77;;;9.50;99.90;;;;;;5114927;28;20852;-68
2021/05/07 00:36:05;;;;;;;0.77;0.70;;;9.50;99.90;;;;;;5114841;28;20528;-68
2021/05/07 00:38:32;;;;;;;0.63;0.60;;;9.60;99.90;;;;;;5115065;28;20475;-68
2021/05/07 00:40:58;;;;;;;0.60;0.50;;;9.70;99.90;;;;;;5114737;28;20488;-67
2021/05/07 00:43:25;;;;;;;0.90;0.60;;;9.70;99.90;;;;;;5114498;28;20464;-68
2021/05/07 00:45:51;;;;;;;0.87;0.53;;;9.50;99.90;;;;;;5114504;28;20544;-68
2021/05/07 00:48:19;;;;;;;1.00;0.70;;;9.60;99.90;;;;;;5114166;28;20927;-68
2021/05/07 00:50:47;;;;;;;0.80;0.50;;;9.50;99.90;;;;;;5114952;28;20809;-68
2021/05/07 00:53:15;;;;;;;0.93;0.60;;;9.60;99.90;;;;;;5100414;28;20552;-68
2021/05/07 00:55:42;;;;;;;1.03;0.60;;;9.60;99.90;;;;;;5094808;28;20441;-68
2021/05/07 00:58:08;;;;;;;1.07;0.83;;;9.50;99.90;;;;;;5094085;28;20522;-68
2021/05/07 01:00:35;;;;;;;1.37;0.73;;;9.50;99.90;;;;;;5098265;28;20543;-68
2021/05/07 01:03:02;;;;;;;0.70;0.60;;;9.50;99.90;;;;;;5114093;28;21021;-68
2021/05/07 01:05:29;;;;;;;1.00;0.80;;;9.50;99.90;;;;;;5114169;28;20817;-68
2021/05/07 01:07:57;;;;;;;0.80;0.60;;;9.60;99.90;;;;;;5114593;28;20510;-69
2021/05/07 01:10:24;;;;;;;1.00;0.70;;;9.50;99.90;;;;;;5113918;28;20527;-68
2021/05/07 01:12:51;;;;;;;0.80;0.80;;;9.40;99.90;;;;;;5113695;28;20452;-68
2021/05/07 01:15:19;;;;;;;0.67;0.67;;;9.30;99.90;;;;;;5100065;28;20958;-68
2021/05/07 01:17:47;;;;;;;0.70;0.57;;;9.50;99.90;;;;;;5114451;28;20440;-69
2021/05/07 01:20:16;;;;;;;0.80;0.73;;;9.40;99.90;;;;;;5113699;28;20530;-69
2021/05/07 01:22:45;;;;;;;1.87;0.80;;;9.40;99.90;;;;;;5113799;28;20969;-68
2021/05/07 01:25:13;;;;;;;1.27;0.80;;;9.40;99.90;;;;;;5113183;28;20836;-68
2021/05/07 01:27:40;;;;;;;1.10;0.70;;;9.40;99.90;;;;;;5113664;28;20450;-68
2021/05/07 01:30:09;;;;;;;0.80;0.77;;;;;;;;;;5093320;28;20494;-68
2021/05/07 01:32:36;;;;;;;0.70;0.50;;;;;;;;;;5101203;28;20489;-68
2021/05/07 01:35:04;;;;;;;0.93;0.70;;;;;;;;;;5114253;28;20444;-68
2021/05/07 01:37:31;;;;;;;1.17;0.80;;;9.30;99.90;;;;;;5113182;28;20877;-68
2021/05/07 01:39:57;;;;;;;0.83;0.73;;;8.90;99.90;;;;;;5113919;28;20439;-68
2021/05/07 01:42:24;;;;;;;0.93;0.67;;;9.00;99.90;;;;;;5113289;28;20560;-68
2021/05/07 01:44:50;;;;;;;0.80;0.60;;;8.90;99.90;;;;;;5113919;28;20566;-68
2021/05/07 01:47:17;;;;;;;1.00;0.90;;;8.70;99.90;;;;;;5113558;28;20556;-68
2021/05/07 01:49:43;;;;;;;0.90;0.70;;;8.80;99.90;;;;;;5113718;28;20876;-68
2021/05/07 01:52:09;;;;;;;0.90;0.60;;;9.00;99.90;;;;;;5112985;28;20478;-68
2021/05/07 01:54:37;;;;;;;0.80;0.80;;;8.90;99.90;;;;;;5113605;28;20526;-68
2021/05/07 01:57:04;;;;;;;1.37;0.90;;;8.60;99.90;;;;;;5113622;28;20487;-68
2021/05/07 01:59:30;;;;;;;1.10;0.70;;;;;;;;;;5112986;28;20444;-68
2021/05/07 02:01:57;;;;;;;1.03;0.93;;;;;;;;;;5112802;28;20454;-68
2021/05/07 02:04:24;;;;;;;1.20;0.93;;;;;;;;;;5112559;28;20448;-68
2021/05/07 02:06:50;;;;;;;0.60;0.60;;;;;;;;;;5113380;28;20454;-68
2021/05/07 02:09:17;;;;;;;1.03;0.93;;;;;;;;;;5112345;28;20472;-69
2021/05/07 02:11:44;;;;;;;1.00;0.77;;;;;;;;;;5113309;28;20515;-68
2021/05/07 02:14:11;;;;;;;1.43;1.13;;;;;;;;;;5113079;28;20439;-68
2021/05/07 02:16:38;;;;;;;1.10;0.83;;;;;;;;;;5113256;28;20491;-68
2021/05/07 02:19:05;;;;;;;1.30;0.70;;;;;;;;;;5112985;28;20492;-68
2021/05/07 02:21:31;;;;;;;0.73;0.70;;;;;;;;;;5112167;28;20559;-68
2021/05/07 02:23:59;;;;;;;0.80;0.50;;;;;;;;;;5113151;28;20900;-68
2021/05/07 02:26:25;;;;;;;1.20;0.83;;;;;;;;;;5112435;28;20919;-68
2021/05/07 02:28:54;;;;;;;1.20;0.70;;;;;;;;;;5112884;28;20959;-69
2021/05/07 02:31:21;;;;;;;1.00;0.63;;;;;;;;;;5111863;28;20530;-68
2021/05/07 02:33:47;;;;;;;3.33;0.90;;;;;;;;;;5113117;28;20526;-68
2021/05/07 02:36:14;;;;;;;0.93;0.83;;;;;;;;;;5112404;28;20534;-68
2021/05/07 02:38:41;;;;;;;0.87;0.80;;;;;;;;;;5112819;28;20462;-68
2021/05/07 02:41:08;;;;;;;1.33;0.93;;;;;;;;;;5113051;28;20448;-69
2021/05/07 02:43:35;;;;;;;0.70;0.70;;;;;;;;;;5111772;28;20488;-69
2021/05/07 02:46:02;;;;;;;1.43;0.90;;;;;;;;;;5112224;28;20566;-68
2021/05/07 02:48:29;;;;;;;0.77;0.60;;;;;;;;;;5111677;28;21007;-69
2021/05/07 02:50:56;;;;;;;0.93;0.73;;;;;;;;;;5112684;28;20917;-68
2021/05/07 02:53:22;;;;;;;1.27;1.03;;;;;;;;;;5111627;28;20458;-68
2021/05/07 02:55:49;;;;;;;1.63;0.80;;;;;;;;;;5112551;28;20448;-68
2021/05/07 02:58:16;;;;;;;0.83;0.70;;;;;;;;;;5111874;28;20534;-68
2021/05/07 03:00:42;;;;;;;1.83;0.77;;;;;;;;;;5112127;28;20525;-68
2021/05/07 03:03:10;;;;;;;0.80;0.80;;;;;;;;;;5112044;28;21034;-68
2021/05/07 03:05:36;;;;;;;1.17;0.90;;;;;;;;;;5111842;28;20491;-69
2021/05/07 03:08:03;;;;;;;0.80;0.80;;;;;;;;;;5112049;28;20436;-68
2021/05/07 03:10:30;;;;;;;4.20;0.90;;;;;;;;;;5111861;28;20471;-68
2021/05/07 03:12:56;;;;;;;1.10;0.70;;;;;;;;;;5112157;28;20522;-69
2021/05/07 03:15:23;;;;;;;1.00;0.90;;;;;;;;;;5111445;28;20850;-68
2021/05/07 03:17:53;;;;;;;0.93;0.80;;;;;;;;;;5112253;28;20528;-68
2021/05/07 03:20:21;;;;;;;1.30;0.97;;;;;;;;;;5111230;28;20982;-69
2021/05/07 03:22:47;;;;;;;1.03;0.90;;;;;;;;;;5108403;28;20519;-68
2021/05/07 03:25:15;;;;;;;1.33;1.07;;;;;;;;;;5112182;28;20539;-68
2021/05/07 03:27:41;;;;;;;0.70;0.70;;;;;;;;;;5111834;28;20450;-68
2021/05/07 03:30:11;;;;;;;0.90;0.80;;;;;;;;;;5111593;28;20523;-68
2021/05/07 03:32:38;;;;;;;0.90;0.70;;;;;;;;;;5110787;28;20444;-68
2021/05/07 03:35:05;;;;;;;0.80;0.70;;;;;;;;;;5111809;28;20478;-68
2021/05/07 03:37:33;;;;;;;0.87;0.80;;;;;;;;;;5110948;28;20466;-68
2021/05/07 03:39:59;;;;;;;1.00;0.90;;;;;;;;;;5111772;28;20487;-69
2021/05/07 03:42:26;;;;;;;0.97;0.90;;;;;;;;;;5110537;28;20529;-68
2021/05/07 03:44:53;;;;;;;1.13;1.00;;;;;;;;;;5111337;28;20459;-68
2021/05/07 03:47:19;;;;;;;1.67;1.07;;;;;;;;;;5110924;28;21009;-68
2021/05/07 03:49:46;;;;;;;2.50;1.27;;;;;;;;;;5111368;28;21055;-68
2021/05/07 03:52:12;;;;;;;1.13;1.03;;;;;;;;;;5111018;28;20493;-68
2021/05/07 03:54:40;;;;;;;1.43;1.10;;;8.50;99.90;;;;;;5110743;28;20439;-68
2021/05/07 03:57:06;;;;;;;1.50;1.13;;;7.90;99.90;;;;;;5111354;28;20435;-68
2021/05/07 03:59:33;;;;;;;1.30;1.20;;;7.80;99.90;;;;;;5110607;28;20543;-68
2021/05/07 04:01:59;;;;;;;1.60;1.20;;;7.90;99.90;;;;;;5110939;28;20471;-68
2021/05/07 04:04:25;;;;;;;1.67;1.37;;;7.80;99.90;;;;;;5110479;28;20467;-70
2021/05/07 04:06:52;;;;;;;3.47;1.70;;;7.60;99.90;;;;;;5108293;28;20601;-73
2021/05/07 04:09:22;;;;;;;1.10;1.00;;;7.60;99.90;;;;;;5110903;28;20503;-71
2021/05/07 04:11:55;;;;;;;1.60;1.50;;;7.70;99.90;;;;;;5111397;28;20930;-69
2021/05/07 04:14:22;;;;;;;3.77;1.40;;;7.80;99.90;;;;;;5111131;28;20767;-69
2021/05/07 04:16:48;;;;;;;3.47;1.97;;;7.60;99.90;;;;;;5111831;28;20443;-68
2021/05/07 04:19:15;;;;;;;2.20;1.57;;;7.50;99.90;;;;;;5111542;28;20455;-67
2021/05/07 04:22:00;;;;;;;1.67;1.30;;;7.50;99.90;;;;;;5110664;28;20454;-67
2021/05/07 04:24:26;;;;;;;1.50;1.10;;;7.40;99.90;;;;;;5111016;28;20432;-67
2021/05/07 04:26:54;;;;;;;2.00;1.20;;;7.40;99.90;;;;;;5111856;28;20447;-67
2021/05/07 04:29:21;;;;;;;2.73;1.90;;;7.30;99.90;;;;;;5110907;28;20479;-70
2021/05/07 04:31:48;;;;;;;2.03;1.30;;;7.60;99.90;;;;;;5111513;28;20479;-69
2021/05/07 04:34:14;;;;;;;1.60;1.30;;;7.50;99.90;;;;;;5111437;28;20761;-68
2021/05/07 04:36:41;;;;;;;1.30;1.13;;;7.50;99.90;;;;;;5110423;28;20475;-68
2021/05/07 04:39:07;;;;;;;2.30;1.30;;;7.50;99.90;;;;;;5111336;28;20457;-68
2021/05/07 04:41:34;;;;;;;1.50;1.20;;;7.40;99.90;;;;;;5110661;28;20530;-68
2021/05/07 04:44:01;;;;;;;1.00;0.80;;;7.30;99.90;;;;;;5111335;28;20534;-70
2021/05/07 04:46:28;;;;;;;1.20;1.03;;;7.30;99.90;;;;;;5110294;28;21056;-70
2021/05/07 04:48:54;;;;;;;1.20;0.80;;;7.40;99.90;;;;;;5111264;28;20522;-69
2021/05/07 04:51:21;;;;;;;1.50;1.10;;;7.60;99.90;;;;;;5111093;28;20436;-70
2021/05/07 04:53:47;;;;;;;1.30;1.17;;;7.50;99.90;;;;;;5111336;28;20509;-69
2021/05/07 04:56:14;;;;;;;1.43;0.90;;;7.50;99.90;;;;;;5110922;28;20439;-70
2021/05/07 04:58:40;;;;;;;1.47;1.00;;;7.40;99.90;;;;;;5110433;28;20684;-69
2021/05/07 05:01:07;;;;;;;1.00;0.90;;;7.40;99.90;;;;;;5111212;28;20453;-69
2021/05/07 05:03:34;;;;;;;1.60;1.30;;;7.30;99.90;;;;;;5110579;28;20447;-69
2021/05/07 05:06:00;;;;;;;1.10;0.87;;;7.30;99.90;;;;;;5111945;28;20550;-69
2021/05/07 05:08:27;;;;;;;1.13;0.90;;;7.40;99.90;;;;;;5114561;28;20526;-69
2021/05/07 05:10:55;;;;;;;1.10;1.00;;;7.50;99.90;;;;;;5114487;28;20482;-69
2021/05/07 05:13:22;;;;;;;1.37;0.70;;;7.50;99.90;;;;;;5114368;28;20442;-69
2021/05/07 05:15:49;;;;;;;1.47;0.97;;;7.40;99.90;;;;;;5114394;28;20534;-69
2021/05/07 05:18:25;;;;;;;1.43;0.70;;;7.50;99.90;;;;;;5114354;28;20829;-69
2021/05/07 05:20:53;;;;;;;1.00;0.90;;;7.60;99.90;;;;;;5114721;28;20445;-69
2021/05/07 05:23:20;;;;;;;1.03;0.93;;;7.50;99.90;;;;;;5114273;28;20970;-69
2021/05/07 05:25:47;;;;;;;1.30;0.70;;;7.70;99.90;;;;;;5114017;28;20450;-69
2021/05/07 05:28:14;;;;;;;1.30;0.70;;;7.50;99.90;;;;;;5114217;28;20454;-69
2021/05/07 05:30:40;;;;;;;1.43;1.07;;;7.30;99.90;;;;;;5113359;28;21050;-69
2021/05/07 05:33:07;;;;;;;1.47;1.33;;;7.30;99.90;;;;;;5114032;28;20435;-69
2021/05/07 05:35:34;;;;;;;1.90;1.23;;;7.60;99.90;;;;;;5113801;28;20438;-69
2021/05/07 05:38:01;;;;;;;1.53;1.23;;;7.70;99.90;;;;;;5114090;28;20530;-69
2021/05/07 05:40:27;;;;;;;1.63;1.50;;;7.80;99.90;;;;;;5113379;28;20531;-70
2021/05/07 05:42:54;;;;;;;1.60;1.40;;;7.90;99.90;;;;;;5114208;28;20528;-69
2021/05/07 05:45:22;;;;;;;2.33;1.90;;;7.90;99.90;;;;;;5113944;28;20451;-69
2021/05/07 05:47:48;;;;;;;1.90;1.57;;;8.00;99.90;;;;;;5113578;28;20431;-69
2021/05/07 05:50:14;;;;;;;1.87;1.70;;;7.90;99.90;;;;;;5113950;28;20570;-70
2021/05/07 05:52:42;;;;;;;2.77;2.00;;;8.10;99.90;;;;;;5113383;28;20522;-69
2021/05/07 05:55:09;;;;;;;2.60;2.37;;;8.00;99.90;;;;;;5113452;28;20535;-70
2021/05/07 05:57:35;;;;;;;2.77;2.10;;;7.80;99.90;;;;;;5127059;28;20482;-69
2021/05/07 06:00:02;;;;;;;2.00;1.53;;;8.20;99.90;;;;;;5133721;28;20439;-69
2021/05/07 06:02:28;;;;;;;2.40;1.80;;;8.10;99.90;;;;;;5132516;28;20428;-69
2021/05/07 06:04:54;;;;;;;2.50;2.00;;;8.10;99.90;;;;;;5130410;28;20435;-69
2021/05/07 06:07:21;;;;;;;4.93;2.27;;;8.10;99.90;;;;;;5119180;28;20473;-70
2021/05/07 06:09:48;;;;;;;3.67;2.10;;;8.10;99.90;;;;;;5114152;28;20527;-69
2021/05/07 06:12:14;;;;;;;4.10;2.33;;;8.00;99.90;;;;;;5114408;28;20432;-69
2021/05/07 06:14:41;;;;;;;2.27;2.07;;;8.00;99.90;;;;;;5113525;28;20466;-69
2021/05/07 06:17:09;;;;;;;3.40;2.47;;;8.10;99.90;;;;;;5113713;28;20745;-69
2021/05/07 06:19:35;;;;;;;4.47;2.17;;;7.90;99.90;;;;;;5113096;28;20439;-69
2021/05/07 06:22:01;;;;;;;2.30;1.70;;;8.00;99.90;;;;;;5113791;28;20588;-69
2021/05/07 06:24:28;;;;;;;4.43;2.67;;;8.10;99.90;;;;;;5112906;28;20546;-70
2021/05/07 06:26:55;;;;;;;2.70;2.37;;;8.10;99.90;;;;;;5113378;28;20924;-69
2021/05/07 06:29:22;;;;;;;4.00;2.43;;;8.30;99.90;;;;;;5113448;28;20520;-69
2021/05/07 06:31:48;;;;;;;2.20;2.00;;;8.30;99.90;;;;;;5112715;28;20527;-69
2021/05/07 06:34:14;;;;;;;4.00;3.17;;;8.20;99.90;;;;;;5113071;28;20949;-69
2021/05/07 06:36:41;;;;;;;2.20;2.00;;;8.20;99.90;;;;;;5112971;28;20522;-69
2021/05/07 06:39:07;;;;;;;3.33;2.37;;;8.20;99.90;;;;;;5113194;28;20815;-69
2021/05/07 06:41:33;;;;;;;3.33;3.03;;;8.30;99.90;;;;;;5112670;28;20530;-69
2021/05/07 06:44:01;;;;;;;4.43;3.73;;;;;;;;;;5113098;28;20524;-70
2021/05/07 06:46:28;;;;;;;3.93;2.70;;;;;;;;;;5111940;28;20915;-69
2021/05/07 06:48:54;;;;;;;2.70;2.50;;;;;;;;;;5112985;28;20435;-69
2021/05/07 06:51:21;;;;;;;2.90;2.53;;;;;;;;;;5112801;28;20570;-69
2021/05/07 06:53:48;;;;;;;3.80;2.87;;;;;;;;;;5111792;28;20439;-69
2021/05/07 06:56:15;;;;;;;2.87;2.50;;;;;;;;;;5112826;28;20584;-69
2021/05/07 06:58:42;;;;;;;3.37;2.90;;;;;;;;;;5112207;28;20489;-69
2021/05/07 07:01:11;;;;;;;4.67;2.93;;;;;;;;;;5112777;28;20957;-69
2021/05/07 07:03:38;;;;;;;2.50;2.17;;;;;;;;;;5112180;28;20439;-69
2021/05/07 07:06:05;;;;;;;3.03;2.73;;;;;;;;;;5109578;28;20542;-69
2021/05/07 07:08:31;;;;;;;6.87;2.70;;;;;;;;;;5125041;27;20538;-69
2021/05/07 07:10:58;;;;;;;5.33;4.63;;;;;;;;;;5111590;27;20473;-68
2021/05/07 07:13:25;;;;;;;4.83;3.40;;;;;;;;;;5128773;27;20533;-69
2021/05/07 07:15:52;;;;;;;4.03;3.60;;;;;;;;;;5129912;27;20451;-69
2021/05/07 07:18:20;;;;;;;6.30;3.90;;;;;;;;;;5130481;27;20451;-68
2021/05/07 07:20:47;;;;;;;4.20;3.57;;;;;;;;;;5130165;27;20520;-70
2021/05/07 07:23:14;;;;;;;5.60;4.07;;;;;;;;;;5117438;27;20515;-69
2021/05/07 07:25:41;;;;;;;7.50;4.63;;;;;;;;;;5109201;28;20455;-69
2021/05/07 07:28:08;;;;;;;4.53;4.13;;;;;;;;;;5109820;28;20447;-69
2021/05/07 07:30:34;;;;;;;4.50;3.90;;;;;;;;;;5108988;28;20511;-69
2021/05/07 07:33:02;;;;;;;4.47;3.60;;;;;;;;;;5110011;28;20536;-69
2021/05/07 07:35:29;;;;;;;6.10;4.00;;;;;;;;;;5109447;28;20943;-69
2021/05/07 07:37:56;;;;;;;4.97;4.13;;;;;;;;;;5109930;28;20569;-70
2021/05/07 07:40:23;;;;;;;5.63;4.60;;;;;;;;;;5119629;27;20548;-69
2021/05/07 07:42:49;;;;;;;4.23;3.83;;;;;;;;;;5130079;27;20461;-69
2021/05/07 07:45:16;;;;;;;5.00;4.50;;;;;;;;;;5129330;27;20588;-69
2021/05/07 07:47:43;;;;;;;8.23;4.47;;;;;;;;;;5129874;27;20871;-69
2021/05/07 07:50:11;;;;;;;8.50;4.50;;;;;;;;;;5130403;27;20493;-69
2021/05/07 07:52:39;;;;;;;5.57;4.33;;;8.40;99.90;;;;;;5129732;27;20470;-69
2021/05/07 07:55:08;;;;;;;6.57;4.20;;;8.90;99.90;;;;;;5130041;27;20475;-69
2021/05/07 07:57:34;;;;;;;8.33;4.97;;;9.20;99.90;;;;;;5129829;27;20530;-69
2021/05/07 08:00:01;;;;;;;7.83;5.30;;;;;;;;;;5130406;27;20486;-69
2021/05/07 08:02:29;;;;;;;5.73;4.30;;;;;;;;;;5129910;27;20481;-69
2021/05/07 08:04:56;;;;;;;4.57;4.17;;;;;;;;;;5130377;28;20473;-69
2021/05/07 08:07:23;;;;;;;5.97;5.40;;;;;;;;;;5132303;28;20545;-69
2021/05/07 08:09:50;;;;;;;7.30;5.67;;;;;;;;;;5131305;28;21043;-70
2021/05/07 08:12:17;;;;;;;6.50;4.60;;;;;;;;;;5131937;28;20447;-69
2021/05/07 08:14:44;;;;;;;5.33;4.50;;;;;;;;;;5131561;28;20513;-69
2021/05/07 08:17:10;;;;;;;7.33;4.30;;;;;;;;;;5132268;28;20531;-70
2021/05/07 08:19:37;;;;;;;7.83;4.50;;;;;;;;;;5131772;28;20530;-69
2021/05/07 08:22:04;;;;;;;5.17;4.10;;;;;;;;;;5132266;28;20542;-69
2021/05/07 08:24:31;;;;;;;5.90;5.17;;;;;;;;;;5132087;28;20842;-69
2021/05/07 08:26:59;;;;;;;5.57;4.33;;;;;;;;;;5132209;28;20465;-69
2021/05/07 08:29:26;;;;;;;5.60;4.50;;;;;;;;;;5132080;28;20529;-69
2021/05/07 08:31:53;;;;;;;4.70;3.67;;;;;;;;;;5131437;28;20529;-69
2021/05/07 08:34:21;;;;;;;6.93;3.97;;;;;;;;;;5132265;28;20860;-69
2021/05/07 08:36:47;;;;;;;5.70;4.20;;;;;;;;;;5131459;28;20814;-69
2021/05/07 08:39:14;;;;;;;4.20;3.63;;;;;;;;;;5131957;28;20587;-69
2021/05/07 08:41:43;;;;;;;4.37;2.93;;;;;;;;;;5135121;27;20473;-69
2021/05/07 08:44:11;;;;;;;3.47;3.17;;;;;;;;;;5135958;27;20530;-69
2021/05/07 08:46:40;;;;;;;3.40;3.10;;;;;;;;;;5134843;27;20470;-69
2021/05/07 08:49:06;;;;;;;5.03;3.00;;;;;;;;;;5135407;27;20426;-69
2021/05/07 08:51:33;;;;;;;4.90;3.37;;;;;;;;;;5135067;27;20811;-69
2021/05/07 08:54:00;;;;;;;3.80;3.00;;;;;;;;;;5135260;27;20481;-69
2021/05/07 08:56:27;;;;;;;3.47;3.17;;;;;;;;;;5135195;27;20434;-69
2021/05/07 08:58:53;;;;;;;3.93;3.10;;;;;;;;;;5134700;27;20445;-69
2021/05/07 09:01:21;;;;;;;7.20;3.77;;;;;;;;;;5135223;27;20447;-69
2021/05/07 09:03:48;;;;;;;3.60;2.93;;;;;;;;;;5134876;27;20521;-69
2021/05/07 09:06:15;;;;;;;3.37;3.07;;;;;;;;;;5135494;27;20427;-69
2021/05/07 09:08:42;;;;;;;3.97;2.90;;;;;;;;;;5134615;27;20434;-69
2021/05/07 09:11:09;;;;;;;3.03;2.73;;;;;;;;;;5135181;27;20473;-69
2021/05/07 09:13:36;;;;;;;4.60;3.10;;;;;;;;;;5134386;27;20538;-69
2021/05/07 09:16:06;;;;;;;3.10;2.80;;;;;;;;;;5135265;27;20438;-69
2021/05/07 09:18:42;;;;;;;5.43;4.77;;;;;;;;;;5134823;27;20984;-70
2021/05/07 09:21:09;;;;;;;4.30;3.53;;;;;;;;;;5135424;27;20605;-69
2021/05/07 09:23:39;;;;;;;5.20;4.17;;;;;;;;;;5134480;27;20850;-70
2021/05/07 09:26:06;;;;;;;3.93;3.07;;;9.30;97.70;;;;;;5135042;27;20449;-69
2021/05/07 09:28:33;;;;;;;3.17;2.90;;;10.30;99.90;;;;;;5134856;27;20990;-69
2021/05/07 09:31:11;;;;;;;4.47;3.30;;;10.50;99.90;;;;;;5134346;27;21050;-69
2021/05/07 09:33:42;;;;;;;4.43;3.43;;;10.60;99.90;;;;;;5134612;27;20824;-70
2021/05/07 09:36:09;;;;;;;4.40;3.10;;;10.70;10.50;;;;;;5134907;27;20461;-69
2021/05/07 09:38:36;;;;;;;4.27;3.10;;;10.50;1.00;;;;;;5134060;27;20534;-69
2021/05/07 09:41:03;;;;;;;2.73;2.50;;;10.50;24.90;;;;;;5134510;27;20455;-69
2021/05/07 09:43:30;;;;;;;3.30;2.80;;;10.70;38.50;;;;;;5135093;27;20439;-69
2021/05/07 09:45:57;;;;;;;3.83;2.83;;;10.90;1.00;;;;;;5133909;27;20482;-69
2021/05/07 09:48:25;;;;;;;6.40;3.10;;;11.00;1.00;;;;;;5134822;27;20431;-69
2021/05/07 09:50:57;;;;;;;3.50;2.70;;;11.10;1.00;;;;;;5134095;27;20494;-69
2021/05/07 09:53:24;;;;;;;2.63;2.40;;;11.20;1.00;;;;;;5133694;27;20945;-68
2021/05/07 09:55:52;;;;;;;2.67;2.47;;;11.00;99.90;;;;;;5133929;27;20575;-69
2021/05/07 09:58:19;;;;;;;3.57;2.90;;;10.90;99.90;;;;;;5134453;27;20447;-69
2021/05/07 10:00:46;;;;;;;2.53;2.33;;;11.10;99.90;;;;;;5133991;27;20445;-68
2021/05/07 10:03:12;;;;;;;4.93;2.87;;;11.10;99.90;;;;;;5134204;27;20985;-69
2021/05/07 10:05:38;;;;;;;2.43;2.23;;;11.10;99.90;;;;;;5133705;27;20533;-68
2021/05/07 10:08:06;;;;;;;3.50;2.30;;;11.40;99.90;;;;;;5134334;27;20464;-68
2021/05/07 10:10:36;;;;;;;2.57;2.30;;;11.60;99.90;;;;;;5134251;27;20582;-69
2021/05/07 10:13:05;;;;;;;4.10;2.50;;;11.90;99.90;;;;;;5133803;27;20792;-69
2021/05/07 10:15:35;;;;;;;3.20;2.20;;;11.90;99.90;;;;;;5133913;27;20489;-69
2021/05/07 10:18:01;;;;;;;5.10;2.60;;;12.20;99.90;;;;;;5133550;27;20488;-68
2021/05/07 10:20:30;;;;;;;2.30;2.10;;;12.30;99.90;;;;;;5133829;27;20443;-68
2021/05/07 10:22:57;;;;;;;3.20;2.90;;;12.40;99.90;;;;;;5133150;27;21006;-69
2021/05/07 10:25:26;;;;;;;3.17;2.10;;;12.20;99.90;;;;;;5134117;27;20546;-68
2021/05/07 10:27:54;;;;;;;3.13;2.40;;;12.00;99.90;;;;;;5133373;27;20581;-68
2021/05/07 10:30:29;;;;;;;2.60;2.40;;;12.20;99.90;;;;;;5133881;27;20569;-68
2021/05/07 10:32:57;;;;;;;3.70;3.23;;;12.20;99.90;;;;;;5132980;27;20474;-68
2021/05/07 10:35:30;;;;;;;3.10;2.80;;;11.80;99.90;;;;;;5133506;27;20470;-69
2021/05/07 10:38:07;;;;;;;4.20;2.90;;;11.50;99.90;;;;;;5133306;27;20477;-69
2021/05/07 10:40:35;;;;;;;2.83;2.30;;;11.80;99.90;;;;;;5133766;27;20509;-70
2021/05/07 10:43:02;;;;;;;2.73;2.23;;;11.90;99.90;;;;;;5133073;27;20499;-69
2021/05/07 10:45:46;;;;;;;2.33;2.10;;;12.30;99.90;;;;;;5133543;27;20456;-68
2021/05/07 10:48:20;;;;;;;2.77;1.77;;;12.30;99.90;;;;;;5133365;27;20791;-69
2021/05/07 10:50:49;;;;;;;2.07;1.83;;;12.00;99.90;;;;;;5132946;27;20458;-69
2021/05/07 10:53:31;;;;;;;3.50;2.00;;;11.90;99.90;;;;;;5133189;27;20443;-70
2021/05/07 10:55:58;;;;;;;5.03;2.63;;;12.00;99.90;;;;;;5132561;27;20915;-68
2021/05/07 10:58:36;;;;;;;3.17;2.33;;;12.50;99.90;;;;;;5133136;27;20446;-69
2021/05/07 11:01:32;;;;;;;9.53;2.93;;;12.80;99.90;;;;;;5132571;27;20435;-69
2021/05/07 11:04:00;;;;;;;3.40;2.03;;;12.70;99.90;;;;;;5131655;27;20513;-69
2021/05/07 11:06:31;;;;;;;2.70;2.30;;;12.70;99.90;;;;;;5132766;27;20958;-70
2021/05/07 11:08:58;;;;;;;3.20;2.53;;;12.30;99.90;;;;;;5132500;27;20760;-69
2021/05/07 11:11:35;;;;;;;3.47;2.20;;;12.30;99.90;;;;;;5132642;27;20569;-69
2021/05/07 11:14:01;;;;;;;2.73;1.80;;;12.80;99.90;;;;;;5132578;27;20426;-70
2021/05/07 11:16:37;;;;;;;3.10;2.80;;;12.80;99.90;;;;;;5132698;27;20443;-69
2021/05/07 11:19:04;;;;;;;3.57;3.00;;;12.60;99.90;;;;;;5132376;27;20422;-70
2021/05/07 11:21:30;;;;;;;2.53;2.33;;;12.00;99.90;;;;;;5133014;27;20443;-69
2021/05/07 11:23:57;;;;;;;7.03;3.10;;;12.10;99.90;;;;;;5132442;27;20876;-69
2021/05/07 11:26:35;;;;;;;5.30;2.80;;;11.80;99.90;;;;;;5132932;27;20470;-69
2021/05/07 11:29:02;;;;;;;3.50;2.60;;;12.00;99.90;;;;;;5131983;27;20430;-70
2021/05/07 11:31:28;;;;;;;3.23;2.93;;;12.10;99.90;;;;;;5132643;27;21058;-69
2021/05/07 11:33:55;;;;;;;2.67;2.40;;;12.40;99.90;;;;;;5131839;27;20474;-69
2021/05/07 11:36:21;;;;;;;2.70;2.50;;;12.60;99.90;;;;;;5132531;27;20438;-70
2021/05/07 11:38:48;;;;;;;4.07;2.40;;;12.50;99.90;;;;;;5131948;27;20439;-70
2021/05/07 11:41:22;;;;;;;2.50;2.30;;;12.40;99.90;;;;;;5132510;27;20843;-70
2021/05/07 11:43:50;;;;;;;2.80;1.87;;;12.10;99.90;;;;;;5132177;27;20458;-69
2021/05/07 11:46:17;;;;;;;2.23;1.90;;;11.90;99.90;;;;;;5132206;27;20479;-68
2021/05/07 11:48:46;;;;;;;2.63;2.40;;;12.00;99.90;;;;;;5131782;27;20526;-68
2021/05/07 11:51:12;;;;;;;6.33;2.90;;;12.50;99.90;;;;;;5132567;27;20569;-70
2021/05/07 11:53:40;;;;;;;4.60;2.77;;;12.40;99.90;;;;;;5132503;27;20813;-69
2021/05/07 11:56:18;;;;;;;3.47;2.00;;;12.20;99.90;;;;;;5131747;27;20495;-70
2021/05/07 11:58:47;;;;;;;4.10;2.70;;;12.00;99.90;;;;;;5131598;27;20923;-70
2021/05/07 12:01:14;;;;;;;2.87;2.30;;;11.60;99.90;;;;;;5132317;27;20438;-70
2021/05/07 12:03:43;;;;;;;2.77;2.10;;;11.60;99.90;;;;;;5132355;27;20491;-68
2021/05/07 12:06:20;;;;;;;2.60;2.40;;;12.20;99.90;;;;;;5132310;28;20439;-69
2021/05/07 12:08:47;;;;;;;3.73;3.33;;;12.60;99.90;;;;;;5131795;28;20890;-69
2021/05/07 12:11:15;;;;;;;3.20;2.70;;;12.70;99.90;;;;;;5132128;28;20526;-69
2021/05/07 12:13:42;;;;;;;2.43;2.23;;;12.60;99.90;;;;;;5132297;28;20530;-69
2021/05/07 12:16:09;;;;;;;4.07;2.20;;;12.70;99.90;;;;;;5134628;27;20509;-70
2021/05/07 12:18:39;;;;;;;4.50;2.27;;;12.50;99.90;;;;;;5136487;27;20445;-70
2021/05/07 12:21:09;;;;;;;2.83;1.90;;;12.30;99.90;;;;;;5135606;27;20489;-69
2021/05/07 12:23:45;;;;;;;4.07;2.37;;;12.60;99.90;;;;;;5136725;27;20435;-70
2021/05/07 12:26:11;;;;;;;2.80;2.10;;;12.60;99.90;;;;;;5136209;27;20521;-70
2021/05/07 12:28:38;;;;;;;2.60;1.80;;;12.60;99.90;;;;;;5135933;27;21000;-69
2021/05/07 12:31:06;;;;;;;2.90;2.20;;;12.60;99.90;;;;;;5135665;27;20534;-70
2021/05/07 12:33:35;;;;;;;2.50;2.30;;;12.40;99.90;;;;;;5136194;27;20474;-70
2021/05/07 12:36:14;;;;;;;2.10;1.90;;;12.00;99.90;;;;;;5135447;27;20554;-70
2021/05/07 12:38:40;;;;;;;2.27;2.00;;;11.90;99.90;;;;;;5135864;27;20911;-70
2021/05/07 12:41:10;;;;;;;2.23;2.03;;;11.70;99.90;;;;;;5135342;27;20926;-70
2021/05/07 12:43:39;;;;;;;3.03;1.93;;;11.60;99.90;;;;;;5136290;27;20442;-70
2021/05/07 12:46:06;;;;;;;2.43;1.80;;;11.50;99.90;;;;;;5134965;27;20481;-69
2021/05/07 12:48:32;;;;;;;3.53;2.33;;;11.50;99.90;;;;;;5135523;27;20969;-68
2021/05/07 12:51:02;;;;;;;3.00;1.93;;;12.00;99.90;;;;;;5135237;27;20559;-68
2021/05/07 12:53:29;;;;;;;3.57;2.30;;;12.30;99.90;;;;;;5135644;27;20938;-68
2021/05/07 12:55:55;;;;;;;4.17;2.33;;;12.40;99.90;;;;;;5134943;27;20926;-68
2021/05/07 12:58:22;;;;;;;3.23;1.97;;;12.60;99.90;;;;;;5135649;27;20489;-68
2021/05/07 13:00:49;;;;;;;2.47;2.00;;;12.90;99.90;;;;;;5134551;27;20498;-68
2021/05/07 13:03:16;;;;;;;2.90;2.07;;;13.50;99.90;;;;;;5135493;27;20439;-68
2021/05/07 13:05:43;;;;;;;2.80;2.13;;;13.40;99.90;;;;;;5135573;27;20521;-68
2021/05/07 13:08:11;;;;;;;2.83;2.00;;;13.50;99.90;;;;;;5134658;27;20537;-70
2021/05/07 13:10:38;;;;;;;2.03;1.70;;;13.20;99.70;;;;;;5135200;27;20509;-70
2021/05/07 13:13:05;;;;;;;3.60;2.47;;;12.80;99.90;;;;;;5134411;27;20526;-70
2021/05/07 13:15:32;;;;;;;6.53;2.30;;;12.60;99.90;;;;;;5135544;27;20501;-70
2021/05/07 13:17:59;;;;;;;3.50;2.23;;;12.50;99.90;;;;;;5134274;27;20521;-70
2021/05/07 13:20:27;;;;;;;2.47;2.13;;;12.30;99.90;;;;;;5135225;27;20541;-70
2021/05/07 13:22:53;;;;;;;2.20;1.73;;;12.20;99.90;;;;;;5134734;27;20438;-70
2021/05/07 13:25:22;;;;;;;2.40;2.20;;;12.00;99.90;;;;;;5134919;27;20474;-71
2021/05/07 13:27:50;;;;;;;3.20;2.03;;;12.10;99.90;;;;;;5133898;27;20522;-70
2021/05/07 13:30:19;;;;;;;2.87;2.10;;;12.00;99.90;;;;;;5135047;27;20551;-70